FW3849 Weather Reports


time (UTC)temp
C
wind
direction
speed
KPH
gust
KPH
rain 1hr
cm
rain 24hr
cm
rain mn
cm
humidity
%
barometer
mb
20220811232043 25 174 16.1 25.7 0.36 0.38 0.38 60 1012.8
20220811231546 25 181 14.5 24.1 0.36 0.38 0.38 62 1012.9
20220811231042 25 211 11.3 24.1 0.36 0.38 0.38 62 1013.0
20220811230542 24 214 14.5 22.5 0.36 0.38 0.38 63 1013.1
20220811230042 24 200 11.3 17.7 0.38 0.38 0.38 65 1013.2
20220811225541 25 166 9.7 20.9 0.38 0.38 0.38 64 1013.3
20220811225041 25 197 14.5 24.1 0.38 0.38 0.38 62 1013.2
20220811224038 25 225 14.5 24.1 0.38 0.38 0.38 62 1013.2
20220811223542 25 214 11.3 17.7 0.36 0.36 0.36 61 1013.4
20220811223040 27 180 4.8 22.5 0.28 0.28 0.28 54 1014.1
20220811222540 29 138 8.0 35.4 0.10 0.10 0.10 45 1014.3
20220811222038 30 171 16.1 35.4 0.03 0.03 0.03 38 1013.6
20220811221550 30 110 9.7 19.3 0.03 0.03 0.03 42 1012.8
20220811221034 30 241 9.7 16.1 0.03 0.03 0.03 44 1012.2
20220811220533 30 204 3.2 14.5 0.03 0.03 0.03 42 1012.2
20220811220033 29 334 4.8 35.4 0.00 0.00 0.00 41 1012.4
20220811215532 30 319 12.9 35.4 0.00 0.00 0.00 40 1012.6
20220811215033 34 327 11.3 29.0 0.00 0.00 0.00 32 1012.7
20220811214031 36 16 4.8 11.3 0.00 0.00 0.00 21 1012.4
20220811213531 36 185 1.6 14.5 0.00 0.00 0.00 20 1012.5
20220811213043 36 68 4.8 12.9 0.00 0.00 0.00 21 1012.5
20220811212533 35 332 3.2 14.5 0.00 0.00 0.00 22 1012.5
20220811212029 35 50 3.2 14.5 0.00 0.00 0.00 22 1012.7
20220811211540 35 46 6.4 14.5 0.00 0.00 0.00 23 1012.7
20220811211033 35 240 3.2 9.7 0.00 0.00 0.00 22 1012.8
20220811210531 35 135 3.2 8.0 0.00 0.00 0.00 22 1012.9
20220811210026 35 338 0.0 12.9 0.00 0.00 0.00 22 1013.0
20220811205533 35 64 3.2 12.9 0.00 0.00 0.00 23 1013.0
20220811205026 35 200 3.2 12.9 0.00 0.00 0.00 23 1013.2
20220811204032 35 7 4.8 12.9 0.00 0.00 0.00 23 1013.5
20220811203527 35 232 3.2 12.9 0.00 0.00 0.00 23 1013.4
20220811203033 35 14 4.8 12.9 0.00 0.00 0.00 24 1013.6
20220811202523 35 19 4.8 9.7 0.00 0.00 0.00 24 1013.7
20220811202027 35 35 0.0 11.3 0.00 0.00 0.00 24 1013.7
20220811201523 35 44 4.8 8.0 0.00 0.00 0.00 24 1013.8
20220811201029 35 320 1.6 8.0 0.00 0.00 0.00 24 1013.7
20220811200522 35 127 3.2 14.5 0.00 0.00 0.00 22 1013.9
20220811200022 35 68 3.2 14.5 0.00 0.00 0.00 23 1014.0
20220811195523 36 133 4.8 17.7 0.00 0.00 0.00 23 1014.1
20220811195020 36 66 8.0 17.7 0.00 0.00 0.00 23 1014.1
20220811194027 35 74 8.0 22.5 0.00 0.00 0.00 25 1014.3
20220811193518 35 52 9.7 22.5 0.00 0.00 0.00 27 1014.4
20220811193016 33 63 11.3 25.7 0.00 0.00 0.00 28 1014.4
20220811192519 33 50 16.1 25.7 0.00 0.00 0.00 30 1014.4
20220811192021 33 62 14.5 25.7 0.00 0.00 0.00 29 1014.5
20220811191515 34 37 8.0 17.7 0.00 0.00 0.00 28 1014.6
20220811191017 34 72 3.2 11.3 0.00 0.00 0.00 27 1014.5
20220811190522 35 339 4.8 11.3 0.00 0.00 0.00 27 1014.6
20220811190014 34 13 1.6 14.5 0.00 0.00 0.00 28 1014.7
20220811185510 33 318 6.4 16.1 0.00 0.00 0.00 28 1014.8
20220811185011 33 1 6.4 17.7 0.00 0.00 0.00 28 1014.9
20220811184014 34 109 3.2 11.3 0.00 0.00 0.00 28 1015.1
20220811183508 33 62 4.8 11.3 0.00 0.00 0.00 28 1015.2
20220811183008 33 21 4.8 11.3 0.00 0.00 0.00 28 1015.3
20220811182503 33 358 3.2 9.7 0.00 0.00 0.00 29 1015.4
20220811182002 33 349 1.6 11.3 0.00 0.00 0.00 29 1015.5
20220811181502 33 311 4.8 11.3 0.00 0.00 0.00 29 1015.7
20220811181104 32 43 0.0 9.7 0.00 0.00 0.00 30 1015.7
20220811180601 32 117 0.0 9.7 0.00 0.00 0.00 30 1015.9
20220811180101 32 48 3.2 9.7 0.00 0.00 0.00 30 1015.9
20220811175557 32 88 1.6 8.0 0.00 0.00 0.00 31 1016.1
20220811175102 33 117 1.6 9.7 0.00 0.00 0.00 30 1016.2
20220811174054 33 81 3.2 8.0 0.00 0.00 0.00 30 1016.4
20220811173553 33 29 3.2 11.3 0.00 0.00 0.00 30 1016.4
20220811173051 32 349 4.8 11.3 0.00 0.00 0.00 30 1016.5
20220811172550 32 46 0.0 14.5 0.00 0.00 0.00 30 1016.6
20220811172050 32 46 6.4 12.9 0.00 0.00 0.00 31 1016.6
20220811171550 32 351 6.4 11.3 0.00 0.00 0.00 32 1016.6
20220811171047 32 344 3.2 14.5 0.00 0.00 0.00 32 1016.7
20220811170546 32 10 4.8 14.5 0.00 0.00 0.00 33 1016.9
20220811170049 32 50 6.4 16.1 0.00 0.00 0.00 34 1016.7
20220811165550 31 62 3.2 14.5 0.00 0.00 0.00 34 1016.7
20220811165044 31 197 6.4 12.9 0.00 0.00 0.00 35 1016.8
20220811164043 31 287 4.8 11.3 0.00 0.00 0.00 35 1016.8
20220811163541 31 71 3.2 9.7 0.00 0.00 0.00 37 1016.9
20220811163041 31 185 3.2 9.7 0.00 0.00 0.00 37 1016.8
20220811162541 31 193 3.2 11.3 0.00 0.00 0.00 36 1016.8
20220811162043 31 63 1.6 8.0 0.00 0.00 0.00 36 1016.8
20220811161557 31 87 1.6 8.0 0.00 0.00 0.00 37 1016.9
20220811161040 30 29 3.2 6.4 0.00 0.00 0.00 39 1017.0
20220811160538 30 266 4.8 8.0 0.00 0.00 0.00 39 1016.9
20220811160042 30 117 3.2 8.0 0.00 0.00 0.00 40 1016.8
20220811155538 29 193 3.2 8.0 0.00 0.00 0.00 40 1016.8
20220811155040 30 111 3.2 6.4 0.00 0.00 0.00 40 1016.7
20220811154038 30 152 3.2 9.7 0.00 0.00 0.00 40 1016.7
20220811153537 30 56 4.8 9.7 0.00 0.00 0.00 39 1016.7
20220811153042 29 52 6.4 11.3 0.00 0.00 0.00 41 1016.7
20220811152542 29 72 4.8 9.7 0.00 0.00 0.00 42 1016.7
20220811152033 28 209 4.8 11.3 0.00 0.00 0.00 43 1016.8
20220811151534 28 218 3.2 12.9 0.00 0.00 0.00 44 1016.7
20220811151030 28 191 6.4 12.9 0.00 0.00 0.00 44 1016.7
20220811150529 28 198 4.8 12.9 0.00 0.00 0.00 44 1016.8
20220811150029 27 181 6.4 12.9 0.00 0.00 0.00 45 1016.8
20220811145531 27 202 6.4 12.9 0.00 0.00 0.00 45 1016.8
20220811145036 27 200 8.0 12.9 0.00 0.00 0.00 45 1016.8
20220811144028 27 56 3.2 9.7 0.00 0.00 0.00 46 1016.9
20220811143528 27 156 4.8 9.7 0.00 0.00 0.00 46 1016.8
20220811143048 27 140 4.8 9.7 0.00 0.00 0.00 46 1016.9
20220811142528 27 75 4.8 9.7 0.00 0.00 0.00 47 1016.8
20220811142032 26 137 3.2 8.0 0.00 0.00 0.00 47 1016.7
20220811141527 26 183 1.6 8.0 0.00 0.00 0.00 48 1016.8
20220811141026 26 166 3.2 8.0 0.00 0.00 0.00 48 1016.8
20220811140527 26 203 3.2 6.4 0.00 0.00 0.00 48 1016.8
20220811140044 26 197 3.2 6.4 0.00 0.00 0.00 48 1016.7
20220811135534 26 183 3.2 6.4 0.00 0.00 0.00 48 1016.7
20220811135031 25 198 0.0 3.2 0.00 0.00 0.00 49 1016.8
20220811134026 25 198 1.6 4.8 0.00 0.00 0.00 49 1016.7
20220811133527 25 198 1.6 4.8 0.00 0.00 0.00 49 1016.7
20220811133032 25 198 1.6 3.2 0.00 0.00 0.00 49 1016.7
20220811132529 25 199 0.0 3.2 0.00 0.00 0.00 49 1016.7
20220811132033 25 206 1.6 4.8 0.00 0.00 0.00 49 1016.7
20220811131525 25 206 1.6 4.8 0.00 0.00 0.00 49 1016.7
20220811131027 25 206 0.0 3.2 0.00 0.00 0.00 49 1016.7
20220811130529 25 206 1.6 3.2 0.00 0.00 0.00 50 1016.6
20220811130046 25 207 1.6 4.8 0.00 0.00 0.00 50 1016.5
20220811125526 25 207 3.2 4.8 0.00 0.00 0.00 50 1016.4
20220811125025 25 198 1.6 3.2 0.00 0.00 0.00 50 1016.4
20220811124029 25 198 0.0 4.8 0.00 0.00 0.00 50 1016.3
20220811123526 25 197 1.6 4.8 0.00 0.00 0.00 50 1016.2
20220811123035 25 181 1.6 3.2 0.00 0.00 0.00 50 1016.3
20220811122529 25 180 1.6 3.2 0.00 0.00 0.00 50 1016.3
20220811122030 25 181 0.0 1.6 0.00 0.00 0.00 50 1016.4
20220811121526 25 180 0.0 3.2 0.00 0.00 0.00 50 1016.3
20220811121029 25 181 0.0 3.2 0.00 0.00 0.00 50 1016.2
20220811120526 25 181 0.0 3.2 0.00 0.00 0.00 50 1016.1
20220811120024 25 181 0.0 1.6 0.00 0.00 0.00 49 1016.1
20220811115523 25 181 0.0 1.6 0.00 0.00 0.00 49 1016.1
20220811115022 25 181 0.0 3.2 0.00 0.00 0.00 49 1016.0
20220811114021 25 181 0.0 3.2 0.00 0.00 0.00 49 1015.8
20220811113522 25 181 0.0 3.2 0.00 0.00 0.00 49 1015.8
20220811113026 25 182 0.0 1.6 0.00 0.00 0.00 49 1015.8
20220811112522 25 183 0.0 1.6 0.00 0.00 0.00 49 1015.8
20220811112018 25 183 0.0 1.6 0.00 0.00 0.00 49 1015.9
20220811111515 25 183 0.0 1.6 0.00 0.00 0.00 48 1015.7
20220811111018 25 183 0.0 1.6 0.00 0.00 0.00 48 1015.7
20220811110518 25 183 0.0 3.2 0.00 0.00 0.00 48 1015.6
20220811110015 25 182 0.0 3.2 0.00 0.00 0.00 48 1015.6
20220811105514 25 183 0.0 1.6 0.00 0.00 0.00 48 1015.7
20220811105018 25 183 0.0 3.2 0.00 0.00 0.00 48 1015.7
20220811104018 25 183 0.0 3.2 0.00 0.00 0.00 48 1015.6
20220811103514 25 183 0.0 3.2 0.00 0.00 0.00 48 1015.6
20220811103030 25 183 0.0 1.6 0.00 0.00 0.00 48 1015.7
20220811102515 25 183 0.0 3.2 0.00 0.00 0.00 47 1015.8
20220811102014 26 183 0.0 4.8 0.00 0.00 0.00 47 1015.6
20220811101512 26 182 1.6 4.8 0.00 0.00 0.00 47 1015.6
20220811101053 26 168 1.6 6.4 0.00 0.00 0.00 47 1015.5
20220811100512 26 168 1.6 6.4 0.00 0.00 0.00 47 1015.6
20220811100012 26 164 3.2 6.4 0.00 0.00 0.00 47 1015.6
20220811095511 26 142 1.6 6.4 0.00 0.00 0.00 47 1015.7
20220811095013 26 166 1.6 8.0 0.00 0.00 0.00 46 1015.7
20220811094010 26 127 1.6 6.4 0.00 0.00 0.00 46 1015.7
20220811093509 26 177 1.6 6.4 0.00 0.00 0.00 46 1015.7
20220811093011 26 152 1.6 6.4 0.00 0.00 0.00 45 1015.7
20220811092508 26 147 3.2 8.0 0.00 0.00 0.00 45 1015.8
20220811092011 26 158 3.2 8.0 0.00 0.00 0.00 45 1015.9
20220811091508 26 168 3.2 6.4 0.00 0.00 0.00 45 1016.1
20220811091006 26 193 3.2 6.4 0.00 0.00 0.00 44 1016.1
20220811090510 26 183 3.2 6.4 0.00 0.00 0.00 44 1016.0
20220811090011 27 177 1.6 6.4 0.00 0.00 0.00 44 1016.1
20220811085506 27 175 1.6 6.4 0.00 0.00 0.00 44 1016.1
20220811085007 27 162 3.2 8.0 0.00 0.00 0.00 44 1016.2
20220811084005 27 185 3.2 8.0 0.00 0.00 0.00 44 1016.4
20220811083504 27 177 3.2 8.0 0.00 0.00 0.00 44 1016.4
20220811083016 27 152 3.2 8.0 0.00 0.00 0.00 43 1016.4
20220811082505 27 187 3.2 6.4 0.00 0.00 0.00 43 1016.3
20220811082004 27 189 3.2 6.4 0.00 0.00 0.00 43 1016.3
20220811081513 27 198 3.2 6.4 0.00 0.00 0.00 43 1016.3
20220811081005 27 174 3.2 9.7 0.00 0.00 0.00 43 1016.3
20220811080505 27 158 3.2 9.7 0.00 0.00 0.00 42 1016.1
20220811080004 27 194 3.2 12.9 0.00 0.00 0.00 42 1016.3
20220811075502 27 171 6.4 12.9 0.00 0.00 0.00 42 1016.1
20220811075003 27 181 6.4 12.9 0.00 0.00 0.00 42 1016.2
20220811074001 27 173 6.4 12.9 0.00 0.00 0.00 42 1016.3
20220811073501 27 149 4.8 9.7 0.00 0.00 0.00 42 1016.3
20220811073002 27 180 3.2 8.0 0.00 0.00 0.00 42 1016.3
20220811072502 27 162 3.2 6.4 0.00 0.00 0.00 41 1016.3
20220811072110 27 169 3.2 6.4 0.00 0.00 0.00 41 1016.3
20220811071613 27 191 3.2 11.3 0.00 0.00 0.00 41 1016.6
20220811071058 27 155 3.2 11.3 0.00 0.00 0.00 41 1016.6
20220811070558 27 157 3.2 9.7 0.00 0.00 0.00 41 1016.6
20220811070057 27 169 3.2 9.7 0.00 0.00 0.00 41 1016.7
20220811065557 27 162 3.2 8.0 0.00 0.00 0.00 41 1016.7
20220811065057 27 147 3.2 8.0 0.00 0.00 0.00 41 1016.6
20220811064102 27 155 3.2 9.7 0.00 0.00 0.00 40 1016.7
20220811063554 27 160 4.8 9.7 0.00 0.00 0.00 40 1016.7
20220811063054 27 197 4.8 8.0 0.00 0.00 0.00 40 1016.8
20220811062554 28 188 4.8 8.0 0.00 0.00 0.00 40 1016.9
20220811062058 28 158 3.2 8.0 0.00 0.00 0.00 40 1016.9
20220811061626 28 154 4.8 9.7 0.00 0.00 0.00 40 1016.9
20220811061053 28 144 4.8 12.9 0.00 0.00 0.00 40 1016.9
20220811060553 28 161 4.8 12.9 0.00 0.00 0.00 40 1017.0
20220811060052 28 151 4.8 9.7 0.00 0.00 0.00 40 1017.0
20220811055554 28 177 3.2 9.7 0.00 0.00 0.00 40 1017.1
20220811055052 28 164 4.8 12.9 0.00 0.00 0.00 40 1017.1
20220811054054 28 154 6.4 14.5 0.00 0.00 0.00 40 1016.9
20220811053551 28 183 4.8 8.0 0.00 0.00 0.00 40 1016.9
20220811053057 28 178 4.8 12.9 0.00 0.00 0.00 40 1016.9
20220811052549 28 135 3.2 12.9 0.00 0.00 0.00 40 1016.8
20220811052047 28 172 3.2 8.0 0.00 0.00 0.00 40 1016.9
20220811051558 28 168 3.2 6.4 0.00 0.00 0.00 40 1016.8
20220811051044 28 175 3.2 6.4 0.00 0.00 0.00 40 1016.9
20220811050546 28 167 1.6 6.4 0.00 0.00 0.00 40 1016.9
20220811050050 28 152 1.6 6.4 0.00 0.00 0.00 40 1016.7
20220811045542 28 122 3.2 6.4 0.00 0.00 0.00 40 1016.7
20220811045043 28 102 1.6 4.8 0.00 0.00 0.00 40 1016.8
20220811044045 28 102 1.6 4.8 0.00 0.00 0.00 40 1016.8
20220811043541 28 93 1.6 4.8 0.00 0.00 0.00 39 1016.8
20220811043041 28 117 0.0 4.8 0.00 0.00 0.00 39 1016.8
20220811042541 28 122 1.6 6.4 0.00 0.00 0.00 39 1016.8
20220811042041 28 76 3.2 9.7 0.00 0.00 0.00 39 1016.8
20220811041549 28 61 1.6 6.4 0.00 0.00 0.00 39 1016.7
20220811041041 28 99 3.2 8.0 0.00 0.00 0.00 39 1016.7
20220811040541 28 166 1.6 4.8 0.00 0.00 0.00 38 1016.7
20220811040049 28 122 1.6 6.4 0.00 0.00 0.00 38 1016.6
20220811035540 28 95 3.2 6.4 0.00 0.00 0.00 38 1016.5
20220811035040 28 127 1.6 6.4 0.00 0.00 0.00 38 1016.5
20220811034024 28 90 1.6 9.7 0.00 0.00 0.00 38 1016.3
20220811033518 29 127 4.8 9.7 0.00 0.00 0.00 38 1016.3
20220811033112 29 122 3.2 9.7 0.00 0.00 0.00 37 1016.2
20220811032518 29 172 3.2 14.5 0.00 0.00 0.00 37 1016.2
20220811032021 29 127 3.2 12.9 0.00 0.00 0.00 37 1016.3
20220811030004 29 134 3.2 14.5 0.00 0.00 0.00 37 1016.0
20220811025506 29 135 6.4 14.5 0.00 0.00 0.00 36 1015.9
20220811025002 30 103 4.8 16.1 0.00 0.00 0.00 36 1015.8
20220811024510 30 171 4.8 16.1 0.00 0.00 0.00 36 1015.8
20220811024002 30 169 8.0 17.7 0.00 0.00 0.00 36 1015.7
20220811023505 30 76 6.4 17.7 0.00 0.00 0.00 36 1015.7
20220811023002 30 89 8.0 20.9 0.00 0.00 0.00 36 1015.6
20220811022502 30 127 8.0 20.9 0.00 0.00 0.00 36 1015.5
20220811022002 30 171 8.0 24.1 0.00 0.00 0.00 36 1015.5
20220811021006 30 122 8.0 24.1 0.00 0.00 0.00 35 1015.3
20220811020502 30 85 8.0 24.1 0.00 0.00 0.00 35 1015.2
20220811020002 30 112 4.8 22.5 0.00 0.00 0.00 34 1015.3
20220811015502 30 117 12.9 22.5 0.00 0.00 0.00 34 1015.2
20220811015002 30 77 9.7 19.3 0.00 0.00 0.00 34 1015.4
20220811014501 30 82 9.7 24.1 0.00 0.00 0.00 34 1015.2
20220811014002 31 33 12.9 24.1 0.00 0.00 0.00 34 1015.2
20220811013505 31 108 11.3 27.4 0.00 0.00 0.00 34 1015.1
20220811013003 31 40 14.5 27.4 0.00 0.00 0.00 33 1015.0
20220811012601 31 72 12.9 27.4 0.00 0.00 0.00 33 1015.0
20220811012101 31 91 14.5 29.0 0.00 0.00 0.00 32 1014.9
20220811011105 31 60 11.3 29.0 0.00 0.00 0.00 32 1014.8
20220811010600 31 110 6.4 25.7 0.00 0.00 0.00 32 1014.8
20220811010502 31 64 9.7 25.7 0.00 0.00 0.00 32 1014.8
20220811010109 31 137 14.5 27.4 0.00 0.00 0.00 31 1014.7
20220811005601 31 85 12.9 27.4 0.00 0.00 0.00 31 1014.6
20220811005101 31 74 16.1 24.1 0.00 0.00 0.00 31 1014.6
20220811004639 31 50 12.9 29.0 0.00 0.00 0.00 31 1014.6
20220811004103 31 46 17.7 29.0 0.00 0.00 0.00 31 1014.5
20220811003559 32 71 12.9 25.7 0.00 0.00 0.00 31 1014.4
20220811003059 32 57 14.5 25.7 0.00 0.00 0.00 31 1014.5
20220811002605 32 55 11.3 27.4 0.00 0.00 0.00 31 1014.5
20220811002104 32 90 12.9 27.4 0.00 0.00 0.00 31 1014.4
20220811001659 32 127 14.5 25.7 0.00 0.00 0.00 30 1014.2
20220811001100 32 135 9.7 24.1 0.00 0.00 0.00 31 1014.3
20220811000559 32 52 9.7 27.4 0.00 0.00 0.00 31 1014.2
20220811000119 32 137 11.3 30.6 0.00 0.00 0.00 31 1014.0
20220810235600 32 70 12.9 25.7 0.00 0.00 0.00 33 1013.9
20220810235201 32 79 17.7 30.6 0.00 0.00 0.00 32 1014.0
20220810234633 33 51 17.7 32.2 0.00 0.00 0.00 30 1014.0
20220810234104 33 71 12.9 32.2 0.00 0.00 0.00 30 1014.2
20220810233602 33 95 19.3 30.6 0.00 0.00 0.00 30 1014.3
20220810233059 33 85 16.1 29.0 0.00 0.00 0.00 30 1014.2
20220810232558 33 67 16.1 30.6 0.00 0.00 0.00 30 1014.3